Terminal Aerodrome Forecast
Issued by NWS Upton, NY

Home | Current Version | Previous Version | Text Only | Print | Product List | Glossary On
Versions: 1 2 3 4 5 6 7 8 9 10 11 12 13 14 15 16 17 18 19 20 21 22 23 24 25 26 27 28 29
000
FTUS41 KOKX 030417 AAB
TAFEWR
TAF AMD
KEWR 030417Z 0304/0406 VRB05KT P6SM SCT020 BKN100
      TEMPO 0304/0305 6SM -RA BR BKN040
     FM030500 VRB05KT 3SM RA BR SCT007 OVC015
      TEMPO 0305/0309 BKN007
     FM030900 03008KT 2SM RA BR OVC005
     FM031300 03008KT 4SM -SHRA BR OVC005
     FM031600 04007KT P6SM SCT007 OVC012
     FM032100 13006KT 6SM BR BKN015=

USA.gov is the U.S. government's official web portal to all federal, state and local government web resources and services.